createdAt,value
2016-05-28T00:00:20.704Z,0
2016-05-28T00:01:03.723Z,0
2016-05-28T00:01:46.632Z,0
2016-05-28T00:02:29.351Z,0
2016-05-28T00:03:12.369Z,0
2016-05-28T00:03:55.246Z,0
2016-05-28T00:04:37.996Z,0
2016-05-28T00:05:21.765Z,0
2016-05-28T00:06:04.908Z,0
2016-05-28T00:06:47.645Z,0
2016-05-28T00:07:30.520Z,0
2016-05-28T00:08:13.555Z,0
2016-05-28T00:08:56.588Z,0
2016-05-28T00:09:39.448Z,0
2016-05-28T00:10:22.465Z,0
2016-05-28T00:11:05.360Z,0
2016-05-28T00:11:48.393Z,0
2016-05-28T00:12:31.112Z,0
2016-05-28T00:13:13.990Z,0
2016-05-28T00:13:56.868Z,0
2016-05-28T00:14:39.884Z,0
2016-05-28T00:15:22.776Z,0
2016-05-28T00:16:05.639Z,0
2016-05-28T00:16:48.672Z,0
2016-05-28T00:17:31.703Z,0
2016-05-28T00:18:14.581Z,0
2016-05-28T00:18:57.615Z,0
2016-05-28T00:19:40.522Z,0
2016-05-28T00:20:23.368Z,0
2016-05-28T00:21:06.105Z,0
2016-05-28T00:21:48.983Z,0
2016-05-28T00:22:32.030Z,0
2016-05-28T00:23:15.064Z,0
2016-05-28T00:23:58.067Z,0
2016-05-28T00:24:40.957Z,0
2016-05-28T00:25:24.038Z,0
2016-05-28T00:26:06.930Z,0
2016-05-28T00:26:49.809Z,0
2016-05-28T00:27:32.825Z,0
2016-05-28T00:28:15.858Z,0
2016-05-28T00:28:58.892Z,0
2016-05-28T00:29:41.924Z,0
2016-05-28T00:30:24.958Z,0
2016-05-28T00:31:07.679Z,0
2016-05-28T00:31:50.697Z,0
2016-05-28T00:32:33.728Z,0
2016-05-28T00:33:16.763Z,0
2016-05-28T00:33:59.780Z,0
2016-05-28T00:34:42.702Z,0
2016-05-28T00:35:25.799Z,0
2016-05-28T00:36:08.880Z,0
2016-05-28T00:36:51.914Z,0
2016-05-28T00:37:34.961Z,0
2016-05-28T00:38:17.979Z,0
2016-05-28T00:39:00.997Z,0
2016-05-28T00:39:43.872Z,0
2016-05-28T00:40:26.906Z,0
2016-05-28T00:41:09.924Z,0
2016-05-28T00:41:52.974Z,0
2016-05-28T00:42:35.865Z,0
2016-05-28T00:43:18.883Z,0
2016-05-28T00:44:01.589Z,0
2016-05-28T00:44:44.604Z,0
2016-05-28T00:45:27.638Z,0
2016-05-28T00:46:10.673Z,0
2016-05-28T00:46:53.707Z,0
2016-05-28T00:47:36.738Z,0
2016-05-28T00:48:19.771Z,0
2016-05-28T00:49:02.806Z,0
2016-05-28T00:49:45.524Z,0
2016-05-28T00:50:28.417Z,0
2016-05-28T00:51:11.295Z,0
2016-05-28T00:51:54.329Z,0
2016-05-28T00:52:37.345Z,0
2016-05-28T00:53:20.238Z,0
2016-05-28T00:54:03.100Z,0
2016-05-28T00:54:46.131Z,0
2016-05-28T00:55:29.165Z,0
2016-05-28T00:56:12.214Z,0
2016-05-28T00:56:55.250Z,0
2016-05-28T00:57:37.968Z,0
2016-05-28T00:58:21.017Z,0
2016-05-28T00:59:03.894Z,0
2016-05-28T00:59:46.925Z,0
2016-05-28T01:00:29.945Z,0
2016-05-28T01:01:12.666Z,0
2016-05-28T01:01:55.543Z,0
2016-05-28T01:02:38.574Z,0
2016-05-28T01:03:21.405Z,0
2016-05-28T01:04:04.283Z,0
2016-05-28T01:04:47.158Z,0
2016-05-28T01:05:30.208Z,0
2016-05-28T01:06:13.226Z,0
2016-05-28T01:06:55.963Z,0
2016-05-28T01:07:38.682Z,0
2016-05-28T01:08:21.700Z,0
2016-05-28T01:09:04.641Z,0
2016-05-28T01:09:47.891Z,0
2016-05-28T01:10:30.831Z,0
2016-05-28T01:11:13.676Z,0
2016-05-28T01:11:56.835Z,0
2016-05-28T01:12:39.867Z,0
2016-05-28T01:13:22.963Z,0
2016-05-28T01:14:05.795Z,0
2016-05-28T01:14:48.716Z,0
2016-05-28T01:15:31.656Z,0
2016-05-28T01:16:14.488Z,0
2016-05-28T01:16:57.506Z,0
2016-05-28T01:17:40.224Z,0
2016-05-28T01:18:23.274Z,0
2016-05-28T01:19:06.292Z,0
2016-05-28T01:19:49.732Z,0
2016-05-28T01:20:32.779Z,0
2016-05-28T01:21:15.673Z,0
2016-05-28T01:21:58.566Z,0
2016-05-28T01:22:41.597Z,0
2016-05-28T01:23:24.475Z,0
2016-05-28T01:24:07.493Z,0
2016-05-28T01:24:50.527Z,0
2016-05-28T01:25:33.386Z,0
2016-05-28T01:26:16.436Z,0
2016-05-28T01:26:59.000Z,0
2016-05-28T01:27:42.032Z,0
2016-05-28T01:28:25.067Z,0
2016-05-28T01:29:08.101Z,0
2016-05-28T01:29:51.119Z,0
2016-05-28T01:30:34.150Z,0
2016-05-28T01:31:17.184Z,0
2016-05-28T01:32:00.077Z,0
2016-05-28T01:32:43.077Z,0
2016-05-28T01:33:26.111Z,0
2016-05-28T01:34:08.974Z,0
2016-05-28T01:34:51.897Z,0
2016-05-28T01:35:34.663Z,0
2016-05-28T01:36:17.682Z,0
2016-05-28T01:37:00.700Z,0
2016-05-28T01:37:43.732Z,0
2016-05-28T01:38:26.437Z,0
2016-05-28T01:39:09.487Z,0
2016-05-28T01:39:52.535Z,0
2016-05-28T01:40:35.551Z,0
2016-05-28T01:41:18.586Z,0
2016-05-28T01:42:01.620Z,0
2016-05-28T01:42:44.323Z,0
2016-05-28T01:43:27.201Z,0
2016-05-28T01:44:10.235Z,0
2016-05-28T01:44:53.253Z,0
2016-05-28T01:45:36.284Z,0
2016-05-28T01:46:19.318Z,0
2016-05-28T01:47:02.352Z,0
2016-05-28T01:47:45.212Z,0
2016-05-28T01:48:28.104Z,0
2016-05-28T01:49:10.826Z,0
2016-05-28T01:49:54.048Z,0
2016-05-28T01:50:37.438Z,0
2016-05-28T01:51:20.315Z,0
2016-05-28T01:52:03.350Z,0
2016-05-28T01:52:46.365Z,0
2016-05-28T01:53:29.399Z,0
2016-05-28T01:54:12.417Z,0
2016-05-28T01:54:55.436Z,0
2016-05-28T01:55:38.311Z,0
2016-05-28T01:56:21.329Z,0
2016-05-28T01:57:04.223Z,0
2016-05-28T01:57:47.239Z,0
2016-05-28T01:58:30.147Z,0
2016-05-28T01:59:13.181Z,0
2016-05-28T01:59:56.184Z,0
2016-05-28T02:00:39.215Z,0
2016-05-28T02:01:22.077Z,0
2016-05-28T02:02:05.095Z,0
2016-05-28T02:02:48.111Z,0
2016-05-28T02:03:31.144Z,0
2016-05-28T02:04:14.022Z,0
2016-05-28T02:04:57.416Z,0
2016-05-28T02:05:40.822Z,0
2016-05-28T02:06:26.856Z,0
2016-05-28T02:07:09.891Z,0
2016-05-28T02:07:52.924Z,0
2016-05-28T02:08:35.955Z,0
2016-05-28T02:09:18.818Z,0
2016-05-28T02:10:01.852Z,0
2016-05-28T02:10:44.867Z,0
2016-05-28T02:11:27.589Z,0
2016-05-28T02:12:10.529Z,0
2016-05-28T02:12:53.546Z,0
2016-05-28T02:13:36.421Z,0
2016-05-28T02:14:19.487Z,0
2016-05-28T02:15:02.521Z,0
2016-05-28T02:15:45.380Z,0
2016-05-28T02:16:28.430Z,0
2016-05-28T02:17:11.307Z,0
2016-05-28T02:17:56.388Z,0
2016-05-28T02:18:39.592Z,0
2016-05-28T02:19:22.469Z,0
2016-05-28T02:20:05.519Z,0
2016-05-28T02:20:48.644Z,0
2016-05-28T02:21:31.396Z,0
2016-05-28T02:22:14.414Z,0
2016-05-28T02:22:57.309Z,0
2016-05-28T02:23:40.309Z,0
2016-05-28T02:24:23.186Z,0
2016-05-28T02:25:06.220Z,0
2016-05-28T02:25:49.111Z,0
2016-05-28T02:26:32.129Z,0
2016-05-28T02:27:15.006Z,0
2016-05-28T02:27:57.884Z,0
2016-05-28T02:28:40.744Z,0
2016-05-28T02:29:23.622Z,0
2016-05-28T02:30:06.655Z,0
2016-05-28T02:30:49.670Z,0
2016-05-28T02:31:32.533Z,0
2016-05-28T02:32:15.567Z,0
2016-05-28T02:32:58.585Z,0
2016-05-28T02:33:41.444Z,0
2016-05-28T02:34:24.478Z,0
2016-05-28T02:35:07.512Z,0
2016-05-28T02:35:50.418Z,0
2016-05-28T02:36:33.296Z,0
2016-05-28T02:37:16.175Z,0
2016-05-28T02:37:59.036Z,0
2016-05-28T02:38:42.067Z,0
2016-05-28T02:39:25.117Z,0
2016-05-28T02:40:08.135Z,0
2016-05-28T02:40:51.010Z,0
2016-05-28T02:41:34.044Z,0
2016-05-28T02:42:16.906Z,0
2016-05-28T02:42:59.956Z,0
2016-05-28T02:43:43.003Z,0
2016-05-28T02:44:26.021Z,0
2016-05-28T02:45:09.039Z,0
2016-05-28T02:45:52.085Z,0
2016-05-28T02:46:35.105Z,0
2016-05-28T02:47:18.138Z,0
2016-05-28T02:48:01.157Z,4
2016-05-28T02:48:44.204Z,4
2016-05-28T02:49:27.096Z,4
2016-05-28T02:50:10.631Z,4
2016-05-28T02:50:53.399Z,0
2016-05-28T02:51:36.462Z,0
2016-05-28T02:52:19.480Z,4
2016-05-28T02:53:02.343Z,4
2016-05-28T02:53:45.218Z,4
2016-05-28T02:54:28.266Z,4
2016-05-28T02:55:11.159Z,8
2016-05-28T02:55:54.178Z,4
2016-05-28T02:56:37.053Z,4
2016-05-28T02:57:19.915Z,8
2016-05-28T02:58:02.949Z,4
2016-05-28T02:58:45.824Z,8
2016-05-28T02:59:28.717Z,8
2016-05-28T03:00:11.751Z,8
2016-05-28T03:00:54.800Z,8
2016-05-28T03:01:37.816Z,8
2016-05-28T03:02:20.695Z,12
2016-05-28T03:03:03.588Z,16
2016-05-28T03:03:46.306Z,12
2016-05-28T03:04:28.872Z,12
2016-05-28T03:05:12.139Z,16
2016-05-28T03:05:55.033Z,16
2016-05-28T03:06:37.908Z,20
2016-05-28T03:07:20.785Z,20
2016-05-28T03:08:03.852Z,20
2016-05-28T03:08:46.867Z,24
2016-05-28T03:09:29.760Z,24
2016-05-28T03:10:12.622Z,28
2016-05-28T03:10:55.688Z,32
2016-05-28T03:11:38.547Z,32
2016-05-28T03:12:21.441Z,36
2016-05-28T03:13:04.490Z,44
2016-05-28T03:13:47.521Z,44
2016-05-28T03:14:30.555Z,48
2016-05-28T03:15:13.588Z,52
2016-05-28T03:15:56.623Z,56
2016-05-28T03:16:39.701Z,60
2016-05-28T03:17:22.453Z,64
2016-05-28T03:18:05.332Z,68
2016-05-28T03:18:48.207Z,76
2016-05-28T03:19:31.256Z,80
2016-05-28T03:20:14.446Z,88
2016-05-28T03:20:57.479Z,92
2016-05-28T03:21:40.354Z,96
2016-05-28T03:22:23.420Z,100
2016-05-28T03:23:06.298Z,112
2016-05-28T03:23:49.313Z,116
2016-05-28T03:24:32.348Z,124
2016-05-28T03:25:15.225Z,132
2016-05-28T03:25:58.259Z,140
2016-05-28T03:26:41.290Z,148
2016-05-28T03:27:24.323Z,152
2016-05-28T03:28:07.342Z,160
2016-05-28T03:28:50.248Z,172
2016-05-28T03:29:33.126Z,180
2016-05-28T03:30:16.161Z,188
2016-05-28T03:30:59.178Z,200
2016-05-28T03:31:42.209Z,204
2016-05-28T03:32:25.275Z,212
2016-05-28T03:33:08.153Z,224
2016-05-28T03:33:51.215Z,232
2016-05-28T03:34:35.530Z,244
2016-05-28T03:35:19.111Z,252
2016-05-28T03:36:02.161Z,260
2016-05-28T03:36:45.208Z,272
2016-05-28T03:37:28.257Z,284
2016-05-28T03:38:11.307Z,300
2016-05-28T03:38:54.199Z,308
2016-05-28T03:39:37.246Z,324
2016-05-28T03:40:20.155Z,344
2016-05-28T03:41:03.206Z,356
2016-05-28T03:41:46.237Z,376
2016-05-28T03:42:29.177Z,396
2016-05-28T03:43:12.226Z,412
2016-05-28T03:43:55.261Z,436
2016-05-28T03:44:38.324Z,456
2016-05-28T03:45:21.216Z,480
2016-05-28T03:46:04.282Z,504
2016-05-28T03:46:47.313Z,524
2016-05-28T03:47:30.362Z,552
2016-05-28T03:48:13.240Z,576
2016-05-28T03:48:56.274Z,600
2016-05-28T03:49:39.258Z,628
2016-05-28T03:50:22.793Z,652
2016-05-28T03:51:05.357Z,680
2016-05-28T03:51:48.076Z,708
2016-05-28T03:52:31.110Z,736
2016-05-28T03:53:14.144Z,768
2016-05-28T03:53:56.882Z,796
2016-05-28T03:54:39.991Z,832
2016-05-28T03:55:22.728Z,860
2016-05-28T03:56:05.745Z,892
2016-05-28T03:56:48.808Z,920
2016-05-28T03:57:31.842Z,948
2016-05-28T03:58:14.892Z,972
2016-05-28T03:58:57.925Z,996
2016-05-28T03:59:40.800Z,1020
2016-05-28T04:00:23.834Z,1040
2016-05-28T04:01:06.900Z,1064
2016-05-28T04:01:49.931Z,1084
2016-05-28T04:02:32.825Z,1108
2016-05-28T04:03:15.875Z,1132
2016-05-28T04:03:58.908Z,1156
2016-05-28T04:04:42.189Z,1184
2016-05-28T04:05:25.145Z,1204
2016-05-28T04:06:08.054Z,1224
2016-05-28T04:06:51.086Z,1244
2016-05-28T04:07:34.119Z,1268
2016-05-28T04:08:17.152Z,1292
2016-05-28T04:09:00.187Z,1312
2016-05-28T04:09:43.234Z,1332
2016-05-28T04:10:26.268Z,1352
2016-05-28T04:11:09.302Z,1376
2016-05-28T04:11:52.349Z,1400
2016-05-28T04:12:35.414Z,1428
2016-05-28T04:13:18.447Z,1448
2016-05-28T04:14:01.341Z,1480
2016-05-28T04:14:44.216Z,1516
2016-05-28T04:15:27.266Z,1556
2016-05-28T04:16:10.316Z,1600
2016-05-28T04:16:53.347Z,1656
2016-05-28T04:17:36.427Z,1708
2016-05-28T04:18:19.305Z,1760
2016-05-28T04:19:02.371Z,1808
2016-05-28T04:19:45.027Z,1864
2016-05-28T04:20:28.060Z,1916
2016-05-28T04:21:11.126Z,1964
2016-05-28T04:21:53.985Z,2012
2016-05-28T04:22:37.034Z,2056
2016-05-28T04:23:19.912Z,2096
2016-05-28T04:24:02.806Z,2144
2016-05-28T04:24:45.837Z,2188
2016-05-28T04:25:28.715Z,2228
2016-05-28T04:26:11.748Z,2268
2016-05-28T04:26:54.623Z,2300
2016-05-28T04:27:37.720Z,2324
2016-05-28T04:28:20.753Z,2352
2016-05-28T04:29:03.803Z,2404
2016-05-28T04:29:46.850Z,2460
2016-05-28T04:30:29.587Z,2496
2016-05-28T04:31:12.636Z,2524
2016-05-28T04:31:55.667Z,2548
2016-05-28T04:32:38.717Z,2572
2016-05-28T04:33:21.455Z,2596
2016-05-28T04:34:04.503Z,2612
2016-05-28T04:34:47.550Z,2624
2016-05-28T04:35:30.616Z,2624
2016-05-28T04:36:14.009Z,2624
2016-05-28T04:36:56.887Z,2608
2016-05-28T04:37:39.778Z,2596
2016-05-28T04:38:22.828Z,2604
2016-05-28T04:39:05.861Z,2612
2016-05-28T04:39:48.892Z,2604
2016-05-28T04:40:31.802Z,2600
2016-05-28T04:41:14.836Z,2612
2016-05-28T04:41:57.885Z,2632
2016-05-28T04:42:40.760Z,2660
2016-05-28T04:43:23.825Z,2696
2016-05-28T04:44:06.891Z,2732
2016-05-28T04:44:49.938Z,2780
2016-05-28T04:45:32.988Z,2828
2016-05-28T04:46:16.021Z,2884
2016-05-28T04:46:59.071Z,2944
2016-05-28T04:47:42.118Z,2996
2016-05-28T04:48:25.011Z,3052
2016-05-28T04:49:07.904Z,3112
2016-05-28T04:49:51.232Z,3168
2016-05-28T04:50:34.485Z,3220
2016-05-28T04:51:17.535Z,3276
2016-05-28T04:52:00.568Z,3328
2016-05-28T04:52:43.631Z,3380
2016-05-28T04:53:26.680Z,3428
2016-05-28T04:54:09.574Z,3476
2016-05-28T04:54:52.605Z,3512
2016-05-28T04:55:35.639Z,3544
2016-05-28T04:56:18.517Z,3568
2016-05-28T04:57:01.409Z,3588
2016-05-28T04:57:44.440Z,3600
2016-05-28T04:58:27.490Z,3624
2016-05-28T04:59:10.556Z,3644
2016-05-28T04:59:53.603Z,3664
2016-05-28T05:00:36.653Z,3692
2016-05-28T05:01:19.686Z,3728
2016-05-28T05:02:02.751Z,3736
2016-05-28T05:02:45.814Z,3736
2016-05-28T05:03:28.832Z,3760
2016-05-28T05:04:11.881Z,3800
2016-05-28T05:04:54.897Z,3864
2016-05-28T05:05:38.869Z,3940
2016-05-28T05:06:21.605Z,4024
2016-05-28T05:07:04.342Z,4140
2016-05-28T05:07:47.452Z,4260
2016-05-28T05:08:30.512Z,4368
2016-05-28T05:09:13.445Z,4512
2016-05-28T05:09:56.492Z,4604
2016-05-28T05:10:39.550Z,4684
2016-05-28T05:11:22.640Z,4756
2016-05-28T05:12:05.698Z,4828
2016-05-28T05:12:48.729Z,4896
2016-05-28T05:13:31.798Z,4960
2016-05-28T05:14:14.544Z,5028
2016-05-28T05:14:57.587Z,5088
2016-05-28T05:15:40.618Z,5156
2016-05-28T05:16:23.676Z,5216
2016-05-28T05:17:06.735Z,5268
2016-05-28T05:17:49.766Z,5316
2016-05-28T05:18:32.666Z,5356
2016-05-28T05:19:15.718Z,5396
2016-05-28T05:19:58.630Z,5428
2016-05-28T05:20:42.301Z,5456
2016-05-28T05:21:25.215Z,5480
2016-05-28T05:22:08.268Z,5492
2016-05-28T05:22:50.986Z,5512
2016-05-28T05:23:34.037Z,5528
2016-05-28T05:24:17.089Z,5552
2016-05-28T05:25:00.123Z,5580
2016-05-28T05:25:43.170Z,5616
2016-05-28T05:26:26.065Z,5664
2016-05-28T05:27:09.131Z,5712
2016-05-28T05:27:52.022Z,5768
2016-05-28T05:28:35.072Z,5832
2016-05-28T05:29:18.106Z,5888
2016-05-28T05:30:00.984Z,5944
2016-05-28T05:30:43.875Z,6000
2016-05-28T05:31:26.941Z,6052
2016-05-28T05:32:09.960Z,6104
2016-05-28T05:32:52.866Z,6160
2016-05-28T05:33:35.744Z,6212
2016-05-28T05:34:18.637Z,6252
2016-05-28T05:35:02.092Z,6292
2016-05-28T05:35:45.514Z,6336
2016-05-28T05:36:28.549Z,6384
2016-05-28T05:37:11.457Z,6424
2016-05-28T05:37:54.363Z,6480
2016-05-28T05:38:37.257Z,6536
2016-05-28T05:39:20.290Z,6600
2016-05-28T05:40:03.325Z,6672
2016-05-28T05:40:46.200Z,6728
2016-05-28T05:41:29.281Z,6792
2016-05-28T05:42:12.174Z,6864
2016-05-28T05:42:55.206Z,6924
2016-05-28T05:43:38.270Z,6984
2016-05-28T05:44:21.148Z,7048
2016-05-28T05:45:04.229Z,7112
2016-05-28T05:45:47.276Z,7164
2016-05-28T05:46:30.326Z,7236
2016-05-28T05:47:13.375Z,7300
2016-05-28T05:47:56.250Z,7368
2016-05-28T05:48:39.299Z,7436
2016-05-28T05:49:22.178Z,7484
2016-05-28T05:50:05.117Z,7548
2016-05-28T05:50:48.070Z,7608
2016-05-28T05:51:31.089Z,7652
2016-05-28T05:52:14.139Z,7696
2016-05-28T05:52:57.029Z,7740
2016-05-28T05:53:40.078Z,7784
2016-05-28T05:54:23.113Z,7836
2016-05-28T05:55:06.021Z,7884
2016-05-28T05:55:49.068Z,7940
2016-05-28T05:56:32.165Z,7988
2016-05-28T05:57:15.199Z,8044
2016-05-28T05:57:58.230Z,8088
2016-05-28T05:58:41.295Z,8136
2016-05-28T05:59:24.033Z,8188
2016-05-28T06:00:07.050Z,8236
2016-05-28T06:00:50.113Z,8284
2016-05-28T06:01:32.835Z,8348
2016-05-28T06:02:15.555Z,8392
2016-05-28T06:02:58.618Z,8436
2016-05-28T06:03:41.669Z,8476
2016-05-28T06:04:25.343Z,8520
2016-05-28T06:05:09.252Z,8576
2016-05-28T06:05:52.158Z,8636
2016-05-28T06:06:35.035Z,8688
2016-05-28T06:07:17.615Z,8744
2016-05-28T06:08:00.728Z,8796
2016-05-28T06:08:43.634Z,8844
2016-05-28T06:09:26.357Z,8908
2016-05-28T06:10:09.406Z,8984
2016-05-28T06:10:52.452Z,9060
2016-05-28T06:11:35.501Z,9128
2016-05-28T06:12:18.426Z,9192
2016-05-28T06:13:01.492Z,9256
2016-05-28T06:13:44.523Z,9300
2016-05-28T06:14:27.557Z,9352
2016-05-28T06:15:10.590Z,9408
2016-05-28T06:15:53.497Z,9448
2016-05-28T06:16:36.547Z,9496
2016-05-28T06:17:19.628Z,9528
2016-05-28T06:18:02.365Z,9576
2016-05-28T06:18:45.428Z,9636
2016-05-28T06:19:28.180Z,9708
2016-05-28T06:20:11.104Z,9776
2016-05-28T06:20:54.011Z,9844
2016-05-28T06:21:37.029Z,9936
2016-05-28T06:22:19.766Z,10036
2016-05-28T06:23:02.659Z,10128
2016-05-28T06:23:45.378Z,10224
2016-05-28T06:24:28.428Z,10312
2016-05-28T06:25:11.321Z,10380
2016-05-28T06:25:54.211Z,10444
2016-05-28T06:26:37.261Z,10504
2016-05-28T06:27:20.155Z,10564
2016-05-28T06:28:03.204Z,10620
2016-05-28T06:28:46.235Z,10676
2016-05-28T06:29:29.285Z,10740
2016-05-28T06:30:12.178Z,10820
2016-05-28T06:30:55.069Z,10900
2016-05-28T06:31:37.837Z,10984
2016-05-28T06:32:20.871Z,11088
2016-05-28T06:33:03.921Z,11200
2016-05-28T06:33:46.968Z,11336
2016-05-28T06:34:30.439Z,11484
2016-05-28T06:35:17.566Z,11668
2016-05-28T06:36:00.601Z,11828
2016-05-28T06:36:43.647Z,11996
2016-05-28T06:37:26.399Z,12144
2016-05-28T06:38:09.434Z,12280
2016-05-28T06:38:52.324Z,12392
2016-05-28T06:39:35.374Z,12484
2016-05-28T06:40:18.408Z,12556
2016-05-28T06:41:01.301Z,12652
2016-05-28T06:41:44.332Z,12752
2016-05-28T06:42:27.226Z,12868
2016-05-28T06:43:10.260Z,13004
2016-05-28T06:43:53.307Z,13164
2016-05-28T06:44:36.215Z,13316
2016-05-28T06:45:19.265Z,13416
2016-05-28T06:46:02.158Z,13472
2016-05-28T06:46:45.220Z,13516
2016-05-28T06:47:28.271Z,13536
2016-05-28T06:48:11.320Z,13524
2016-05-28T06:48:54.414Z,13456
2016-05-28T06:49:38.214Z,13268
2016-05-28T06:50:21.278Z,12844
2016-05-28T06:51:04.156Z,12604
2016-05-28T06:51:46.906Z,12376
2016-05-28T06:52:29.956Z,11992
2016-05-28T06:53:12.552Z,11440
2016-05-28T06:53:55.442Z,10996
2016-05-28T06:54:38.353Z,10864
2016-05-28T06:55:21.433Z,10804
2016-05-28T06:56:04.482Z,10868
2016-05-28T06:56:47.544Z,10960
2016-05-28T06:57:30.439Z,11004
2016-05-28T06:58:13.473Z,11072
2016-05-28T06:58:56.364Z,11212
2016-05-28T06:59:39.100Z,11380
2016-05-28T07:00:21.977Z,11528
2016-05-28T07:01:04.871Z,11744
2016-05-28T07:01:47.918Z,12128
2016-05-28T07:02:30.983Z,12244
2016-05-28T07:03:13.719Z,12104
2016-05-28T07:03:56.594Z,12060
2016-05-28T07:04:39.676Z,12000
2016-05-28T07:05:22.960Z,11940
2016-05-28T07:06:05.868Z,12028
2016-05-28T07:06:48.899Z,12216
2016-05-28T07:07:31.949Z,12260
2016-05-28T07:08:14.843Z,12332
2016-05-28T07:08:57.718Z,12572
2016-05-28T07:09:40.611Z,13064
2016-05-28T07:10:23.660Z,13312
2016-05-28T07:11:06.554Z,13968
2016-05-28T07:11:49.616Z,14520
2016-05-28T07:12:32.681Z,14700
2016-05-28T07:13:15.575Z,14520
2016-05-28T07:13:58.465Z,14412
2016-05-28T07:14:41.499Z,14312
2016-05-28T07:15:24.236Z,14252
2016-05-28T07:16:07.146Z,14112
2016-05-28T07:16:49.880Z,13388
2016-05-28T07:17:32.601Z,13120
2016-05-28T07:18:15.526Z,13404
2016-05-28T07:18:58.417Z,13576
2016-05-28T07:19:42.122Z,13320
2016-05-28T07:20:25.125Z,12952
2016-05-28T07:21:08.017Z,12368
2016-05-28T07:21:51.064Z,12268
2016-05-28T07:22:34.115Z,12216
2016-05-28T07:23:17.148Z,11956
2016-05-28T07:23:59.883Z,11816
2016-05-28T07:24:42.933Z,11724
2016-05-28T07:25:25.967Z,11708
2016-05-28T07:26:08.860Z,11752
2016-05-28T07:26:51.906Z,11788
2016-05-28T07:27:34.956Z,11908
2016-05-28T07:28:18.005Z,12064
2016-05-28T07:29:00.724Z,12260
2016-05-28T07:29:43.759Z,12440
2016-05-28T07:30:26.824Z,12744
2016-05-28T07:31:09.732Z,12860
2016-05-28T07:31:52.779Z,12904
2016-05-28T07:32:35.705Z,13096
2016-05-28T07:33:18.755Z,13212
2016-05-28T07:34:01.473Z,13320
2016-05-28T07:34:44.803Z,13592
2016-05-28T07:35:28.055Z,13832
2016-05-28T07:36:11.105Z,13928
2016-05-28T07:36:54.137Z,13828
2016-05-28T07:37:37.202Z,13816
2016-05-28T07:38:20.235Z,13392
2016-05-28T07:39:03.270Z,13168
2016-05-28T07:39:46.176Z,13040
2016-05-28T07:40:29.210Z,13104
2016-05-28T07:41:12.104Z,13280
2016-05-28T07:41:55.135Z,13552
2016-05-28T07:42:38.199Z,13896
2016-05-28T07:43:21.093Z,14336
2016-05-28T07:44:04.159Z,14924
2016-05-28T07:44:47.190Z,15648
2016-05-28T07:45:30.254Z,16804
2016-05-28T07:46:13.179Z,18016
2016-05-28T07:46:56.226Z,18144
2016-05-28T07:47:39.275Z,18336
2016-05-28T07:48:22.309Z,18464
2016-05-28T07:49:05.359Z,18208
2016-05-28T07:49:49.187Z,17952
2016-05-28T07:50:32.987Z,17792
2016-05-28T07:51:16.114Z,17952
2016-05-28T07:51:59.177Z,18368
2016-05-28T07:52:42.226Z,18208
2016-05-28T07:53:25.120Z,17728
2016-05-28T07:54:08.013Z,17120
2016-05-28T07:54:51.044Z,15700
2016-05-28T07:55:33.953Z,15240
2016-05-28T07:56:16.847Z,15084
2016-05-28T07:56:59.737Z,14976
2016-05-28T07:57:42.772Z,14908
2016-05-28T07:58:25.837Z,14872
2016-05-28T07:59:08.745Z,14856
2016-05-28T07:59:51.792Z,14884
2016-05-28T08:00:34.826Z,14856
2016-05-28T08:01:17.892Z,14760
2016-05-28T08:02:00.783Z,14572
2016-05-28T08:02:43.535Z,14396
2016-05-28T08:03:26.585Z,14236
2016-05-28T08:04:09.618Z,14000
2016-05-28T08:04:53.618Z,14152
2016-05-28T08:05:36.230Z,14356
2016-05-28T08:06:19.389Z,14744
2016-05-28T08:07:02.452Z,15160
2016-05-28T08:07:45.485Z,15516
2016-05-28T08:08:28.379Z,16128
2016-05-28T08:09:10.976Z,16672
2016-05-28T08:09:53.866Z,16708
2016-05-28T08:10:36.900Z,16464
2016-05-28T08:11:19.949Z,16776
2016-05-28T08:12:03.030Z,17000
2016-05-28T08:12:49.952Z,17124
2016-05-28T08:13:33.018Z,17292
2016-05-28T08:14:16.067Z,17824
2016-05-28T08:14:58.973Z,18432
2016-05-28T08:15:41.882Z,18336
2016-05-28T08:16:24.932Z,18560
2016-05-28T08:17:07.997Z,18848
2016-05-28T08:17:51.043Z,19584
2016-05-28T08:18:34.109Z,19712
2016-05-28T08:19:17.018Z,19488
2016-05-28T08:20:00.549Z,18624
2016-05-28T08:20:44.130Z,18432
2016-05-28T08:21:27.180Z,18432
2016-05-28T08:22:10.057Z,18688
2016-05-28T08:22:53.104Z,19104
2016-05-28T08:23:35.997Z,19520
2016-05-28T08:24:18.906Z,19840
2016-05-28T08:25:01.641Z,20288
2016-05-28T08:25:44.362Z,20832
2016-05-28T08:26:27.427Z,20608
2016-05-28T08:27:10.478Z,20128
2016-05-28T08:27:53.368Z,19808
2016-05-28T08:28:40.448Z,19552
2016-05-28T08:29:23.514Z,19392
2016-05-28T08:30:06.595Z,19296
2016-05-28T08:30:49.642Z,19392
2016-05-28T08:31:32.691Z,19456
2016-05-28T08:32:15.741Z,19456
2016-05-28T08:32:58.788Z,19520
2016-05-28T08:33:41.868Z,19552
2016-05-28T08:34:25.089Z,19712
2016-05-28T08:35:08.655Z,19936
2016-05-28T08:35:51.421Z,20192
2016-05-28T08:36:34.485Z,20576
2016-05-28T08:37:17.379Z,20832
2016-05-28T08:38:00.410Z,20960
2016-05-28T08:38:43.444Z,21056
2016-05-28T08:39:26.385Z,20928
2016-05-28T08:40:09.466Z,20800
2016-05-28T08:40:52.356Z,20960
2016-05-28T08:41:35.405Z,20800
2016-05-28T08:42:18.471Z,20352
2016-05-28T08:43:01.518Z,19904
2016-05-28T08:43:44.567Z,19808
2016-05-28T08:44:27.616Z,20480
2016-05-28T08:45:10.682Z,20288
2016-05-28T08:45:53.760Z,20768
2016-05-28T08:46:36.872Z,20960
2016-05-28T08:47:19.749Z,20960
2016-05-28T08:48:02.484Z,20960
2016-05-28T08:48:45.534Z,21024
2016-05-28T08:49:28.599Z,21088
2016-05-28T08:50:12.149Z,21184
2016-05-28T08:50:55.212Z,21216
2016-05-28T08:51:38.120Z,21152
2016-05-28T08:52:21.544Z,21120
2016-05-28T08:53:04.595Z,21056
2016-05-28T08:53:47.673Z,21056
2016-05-28T08:54:30.722Z,21056
2016-05-28T08:55:13.771Z,21120
2016-05-28T08:55:56.662Z,21056
2016-05-28T08:56:39.712Z,21056
2016-05-28T08:57:22.776Z,21216
2016-05-28T08:58:05.669Z,21440
2016-05-28T08:58:48.700Z,21696
2016-05-28T08:59:31.594Z,21920
2016-05-28T09:00:14.659Z,22112
2016-05-28T09:00:57.753Z,22400
2016-05-28T09:01:40.787Z,22656
2016-05-28T09:02:23.680Z,22944
2016-05-28T09:03:06.590Z,23264
2016-05-28T09:03:49.653Z,24192
2016-05-28T09:04:32.702Z,26304
2016-05-28T09:05:16.220Z,27168
2016-05-28T09:05:59.502Z,25760
2016-05-28T09:06:42.379Z,24224
2016-05-28T09:07:25.428Z,24256
2016-05-28T09:08:08.493Z,24576
2016-05-28T09:08:51.540Z,24928
2016-05-28T09:09:34.293Z,25120
2016-05-28T09:10:17.343Z,25280
2016-05-28T09:11:00.374Z,25504
2016-05-28T09:11:43.268Z,25632
2016-05-28T09:12:26.363Z,25344
2016-05-28T09:13:09.413Z,24864
2016-05-28T09:13:52.491Z,24672
2016-05-28T09:14:35.385Z,24800
2016-05-28T09:15:18.294Z,25088
2016-05-28T09:16:01.341Z,25504
2016-05-28T09:16:44.093Z,25984
2016-05-28T09:17:27.205Z,26912
2016-05-28T09:18:10.130Z,27552
2016-05-28T09:18:53.193Z,27648
2016-05-28T09:19:36.492Z,27936
2016-05-28T09:20:19.151Z,27008
2016-05-28T09:21:02.073Z,27008
2016-05-28T09:21:45.122Z,27232
2016-05-28T09:22:28.032Z,27840
2016-05-28T09:23:10.925Z,28608
2016-05-28T09:23:53.971Z,29024
2016-05-28T09:24:37.021Z,28736
2016-05-28T09:25:20.102Z,29152
2016-05-28T09:26:03.009Z,29120
2016-05-28T09:26:46.121Z,29248
2016-05-28T09:27:29.186Z,29408
2016-05-28T09:28:12.078Z,28096
2016-05-28T09:28:55.000Z,28384
2016-05-28T09:29:38.066Z,28640
2016-05-28T09:30:20.975Z,28672
2016-05-28T09:31:03.850Z,28864
2016-05-28T09:31:46.915Z,29248
2016-05-28T09:32:29.825Z,31168
2016-05-28T09:33:12.857Z,32128
2016-05-28T09:33:55.935Z,33760
2016-05-28T09:34:39.000Z,34912
2016-05-28T09:35:21.785Z,36384
2016-05-28T09:36:04.707Z,37440
2016-05-28T09:36:47.600Z,25344
2016-05-28T09:37:30.680Z,24608
2016-05-28T09:38:13.574Z,25728
2016-05-28T09:38:56.480Z,33952
2016-05-28T09:39:39.546Z,47232
2016-05-28T09:40:22.610Z,59360
2016-05-28T09:41:05.692Z,63744
2016-05-28T09:41:48.739Z,58784
2016-05-28T09:42:31.819Z,47552
2016-05-28T09:43:14.869Z,47104
2016-05-28T09:43:57.900Z,71424
2016-05-28T09:44:40.981Z,71424
2016-05-28T09:45:24.015Z,29184
2016-05-28T09:46:07.096Z,30944